Time;durP1;ratioP1;P1;durP2;ratioP2;P2;SDS_P1;SDS_P2;PMS_P1;PMS_P2;Temp;Humidity;BMP_temperature;BMP_pressure;BME280_temperature;BME280_humidity;BME280_pressure;Samples;Min_cycle;Max_cycle;Signal;HPM_P1;HPM_P2
2022/04/05 00:00:33;;;;;;;15.23;6.78;;;4.00;99.90;;;;;;4976687;28;20102;-75
2022/04/05 00:02:59;;;;;;;11.95;6.63;;;3.90;99.90;;;;;;4984107;28;20181;-75
2022/04/05 00:05:25;;;;;;;13.68;6.28;;;3.90;99.90;;;;;;4995446;28;20097;-75
2022/04/05 00:07:51;;;;;;;12.10;6.97;;;3.80;99.90;;;;;;4995985;28;20148;-75
2022/04/05 00:10:17;;;;;;;11.70;6.90;;;3.70;99.90;;;;;;4995650;28;20378;-75
2022/04/05 00:12:43;;;;;;;14.65;7.32;;;3.70;99.90;;;;;;4995770;28;20027;-75
2022/04/05 00:15:09;;;;;;;12.13;6.72;;;3.70;99.90;;;;;;4995588;28;20084;-76
2022/04/05 00:17:39;;;;;;;15.02;7.00;;;3.80;99.90;;;;;;4995537;28;20037;-75
2022/04/05 00:20:07;;;;;;;11.50;6.97;;;3.70;99.90;;;;;;4982801;28;20023;-75
2022/04/05 00:22:33;;;;;;;14.75;6.78;;;3.60;99.90;;;;;;4975573;28;20026;-75
2022/04/05 00:24:58;;;;;;;13.48;6.75;;;3.70;99.90;;;;;;4976086;28;20467;-76
2022/04/05 00:27:24;;;;;;;12.80;7.20;;;3.80;99.80;;;;;;4975625;28;20034;-75
2022/04/05 00:29:50;;;;;;;13.13;6.82;;;3.80;99.90;;;;;;4975113;28;20034;-76
2022/04/05 00:32:16;;;;;;;13.35;6.78;;;3.70;99.90;;;;;;4975154;28;20029;-76
2022/04/05 00:34:42;;;;;;;11.85;6.70;;;3.80;99.90;;;;;;4975620;28;20027;-75
2022/04/05 00:37:07;;;;;;;10.40;6.10;;;3.90;99.90;;;;;;4958392;28;20070;-75
2022/04/05 00:39:33;;;;;;;10.30;6.68;;;4.00;99.90;;;;;;4975639;28;20135;-76
2022/04/05 00:41:59;;;;;;;12.50;6.75;;;4.00;99.90;;;;;;4975663;28;20026;-75
2022/04/05 00:44:25;;;;;;;11.18;6.97;;;3.90;99.90;;;;;;4957561;28;20051;-75
2022/04/05 00:46:53;;;;;;;13.27;7.03;;;3.90;99.90;;;;;;4975440;28;20062;-77
2022/04/05 00:49:30;;;;;;;13.65;6.07;;;4.00;99.90;;;;;;4975115;28;20027;-76
2022/04/05 00:51:56;;;;;;;11.70;6.88;;;3.90;99.90;;;;;;4958152;28;20035;-76
2022/04/05 00:54:25;;;;;;;11.65;6.40;;;3.80;99.90;;;;;;4975529;28;20015;-76
2022/04/05 00:56:53;;;;;;;16.55;7.05;;;3.80;99.90;;;;;;4975473;28;20031;-76
2022/04/05 00:59:19;;;;;;;13.55;6.75;;;3.80;99.90;;;;;;4975295;28;20041;-76
2022/04/05 01:01:46;;;;;;;12.00;6.38;;;3.80;99.90;;;;;;4974384;28;20034;-76
2022/04/05 01:04:12;;;;;;;12.43;6.28;;;3.60;99.90;;;;;;4992790;28;20022;-76
2022/04/05 01:06:39;;;;;;;13.18;6.03;;;3.60;99.90;;;;;;4994120;28;20636;-76
2022/04/05 01:09:08;;;;;;;11.02;6.65;;;3.50;99.90;;;;;;4994927;28;20022;-76
2022/04/05 01:11:34;;;;;;;10.30;5.82;;;3.50;99.90;;;;;;4975155;28;20530;-76
2022/04/05 01:14:00;;;;;;;14.63;7.07;;;3.50;99.90;;;;;;4975332;28;20027;-76
2022/04/05 01:16:26;;;;;;;15.52;6.60;;;3.50;99.90;;;;;;4974784;28;20035;-76
2022/04/05 01:18:52;;;;;;;17.50;6.55;;;3.50;99.90;;;;;;4975020;28;20023;-76
2022/04/05 01:21:18;;;;;;;11.98;6.60;;;3.50;99.90;;;;;;4957492;28;20026;-76
2022/04/05 01:24:07;;;;;;;10.93;6.38;;;3.60;99.90;;;;;;4975002;28;20041;-76
2022/04/05 01:26:44;;;;;;;16.02;6.50;;;3.60;99.90;;;;;;4974621;28;20023;-77
2022/04/05 01:29:11;;;;;;;11.30;6.25;;;3.40;99.90;;;;;;4974863;28;20402;-76
2022/04/05 01:31:38;;;;;;;14.05;6.43;;;3.40;99.90;;;;;;4974456;28;20023;-76
2022/04/05 01:34:04;;;;;;;13.48;6.50;;;3.40;99.90;;;;;;4974676;28;20026;-76
2022/04/05 01:36:30;;;;;;;12.68;6.10;;;3.40;99.90;;;;;;4957160;28;20121;-76
2022/04/05 01:38:55;;;;;;;11.10;6.45;;;3.30;99.90;;;;;;4974123;28;20102;-76
2022/04/05 01:41:21;;;;;;;11.02;6.07;;;3.30;99.90;;;;;;4974427;28;20058;-76
2022/04/05 01:43:47;;;;;;;14.35;6.40;;;3.30;99.90;;;;;;4974444;28;20019;-76
2022/04/05 01:46:12;;;;;;;11.75;6.72;;;3.30;99.90;;;;;;4974277;28;20035;-76
2022/04/05 01:48:39;;;;;;;12.88;6.50;;;3.30;99.90;;;;;;4974240;28;20058;-76
2022/04/05 01:51:05;;;;;;;10.38;6.60;;;3.40;99.90;;;;;;4974423;28;20054;-76
2022/04/05 01:53:31;;;;;;;12.00;6.15;;;3.50;99.90;;;;;;4974101;28;20038;-76
2022/04/05 01:55:57;;;;;;;11.95;6.72;;;3.50;99.90;;;;;;4974090;28;20039;-76
2022/04/05 01:58:22;;;;;;;9.60;6.40;;;3.40;99.90;;;;;;4974460;28;20097;-76
2022/04/05 02:00:51;;;;;;;10.82;6.60;;;3.10;99.90;;;;;;4973849;28;20076;-76
2022/04/05 02:03:17;;;;;;;14.95;6.53;;;3.10;99.90;;;;;;4974292;28;20047;-76
2022/04/05 02:05:46;;;;;;;13.13;6.43;;;3.10;99.90;;;;;;4974137;28;20086;-76
2022/04/05 02:08:12;;;;;;;13.60;5.97;;;3.00;99.90;;;;;;4974607;28;20038;-76
2022/04/05 02:10:38;;;;;;;12.77;6.38;;;3.00;99.90;;;;;;4957118;28;20093;-76
2022/04/05 02:13:04;;;;;;;12.48;6.55;;;3.00;99.90;;;;;;4974138;28;20495;-76
2022/04/05 02:15:29;;;;;;;11.90;6.75;;;3.00;99.90;;;;;;4956335;28;20027;-76
2022/04/05 02:17:55;;;;;;;10.18;6.25;;;3.00;99.90;;;;;;4974157;28;20471;-76
2022/04/05 02:20:21;;;;;;;12.40;6.50;;;3.20;99.90;;;;;;4973839;28;20491;-76
2022/04/05 02:22:46;;;;;;;8.73;5.95;;;3.30;99.90;;;;;;4974104;28;20475;-76
2022/04/05 02:25:12;;;;;;;14.52;6.75;;;3.20;99.90;;;;;;4973864;28;20471;-76
2022/04/05 02:27:41;;;;;;;9.43;5.72;;;3.30;99.90;;;;;;4972997;28;20501;-76
2022/04/05 02:30:07;;;;;;;15.93;7.03;;;3.30;99.90;;;;;;4973347;28;20110;-76
2022/04/05 02:32:33;;;;;;;9.07;5.93;;;3.30;99.90;;;;;;4973828;28;20049;-76
2022/04/05 02:34:59;;;;;;;9.07;5.93;;;3.30;99.90;;;;;;4973640;28;20460;-76
2022/04/05 02:37:24;;;;;;;11.75;6.78;;;3.30;99.90;;;;;;4974075;28;20090;-76
2022/04/05 02:39:50;;;;;;;9.95;5.85;;;3.20;99.90;;;;;;4973824;28;20034;-76
2022/04/05 02:42:15;;;;;;;9.80;5.88;;;3.30;99.90;;;;;;4974054;28;20038;-76
2022/04/05 02:44:42;;;;;;;9.73;5.38;;;3.30;99.90;;;;;;4973566;28;20023;-76
2022/04/05 02:47:09;;;;;;;8.38;5.35;;;3.10;99.90;;;;;;4973462;28;20166;-76
2022/04/05 02:49:34;;;;;;;9.68;5.97;;;3.10;99.90;;;;;;4973454;28;20023;-76
2022/04/05 02:52:00;;;;;;;9.50;5.97;;;3.00;99.90;;;;;;4973861;28;20034;-76
2022/04/05 02:54:26;;;;;;;10.98;6.35;;;2.90;99.90;;;;;;4975238;28;20070;-76
2022/04/05 02:56:51;;;;;;;9.80;5.65;;;2.90;99.90;;;;;;4977767;28;20078;-76
2022/04/05 02:59:17;;;;;;;10.68;5.88;;;2.80;99.90;;;;;;4977449;28;20023;-76
2022/04/05 03:01:43;;;;;;;10.20;6.28;;;2.80;99.90;;;;;;4977098;28;20038;-76
2022/04/05 03:04:09;;;;;;;10.70;6.15;;;2.70;99.90;;;;;;4994753;28;20042;-76
2022/04/05 03:06:34;;;;;;;10.25;5.85;;;2.80;99.90;;;;;;4997224;28;20023;-76
2022/04/05 03:09:00;;;;;;;10.85;6.28;;;2.80;99.90;;;;;;4997046;28;20070;-76
2022/04/05 03:11:26;;;;;;;9.95;5.80;;;2.80;99.90;;;;;;4983982;28;20061;-76
2022/04/05 03:13:52;;;;;;;10.02;5.75;;;2.80;99.90;;;;;;4976783;28;20532;-76
2022/04/05 03:16:18;;;;;;;8.43;5.93;;;2.70;99.90;;;;;;4977410;28;20054;-76
2022/04/05 03:18:46;;;;;;;12.68;6.65;;;2.70;99.90;;;;;;4977164;28;20026;-77
2022/04/05 03:21:13;;;;;;;15.90;6.43;;;2.70;99.90;;;;;;4977364;28;20073;-76
2022/04/05 03:23:39;;;;;;;13.15;6.82;;;2.70;99.90;;;;;;4977141;28;20015;-77
2022/04/05 03:26:05;;;;;;;13.20;7.05;;;2.60;99.90;;;;;;4976819;28;20030;-77
2022/04/05 03:28:31;;;;;;;14.93;7.20;;;2.70;99.90;;;;;;4976483;28;20541;-77
2022/04/05 03:30:56;;;;;;;11.77;6.68;;;2.80;99.90;;;;;;4976278;28;20069;-76
2022/04/05 03:33:22;;;;;;;12.02;6.05;;;2.80;99.90;;;;;;4977079;28;20509;-76
2022/04/05 03:35:48;;;;;;;12.25;6.75;;;2.70;99.90;;;;;;4976577;28;20487;-76
2022/04/05 03:38:13;;;;;;;13.55;6.43;;;2.80;99.90;;;;;;4977127;28;20085;-77
2022/04/05 03:40:39;;;;;;;11.55;6.43;;;2.80;99.90;;;;;;4959408;28;20360;-77
2022/04/05 03:43:07;;;;;;;9.98;6.40;;;2.80;99.90;;;;;;4976438;28;20102;-76
2022/04/05 03:45:33;;;;;;;13.20;6.93;;;2.80;99.90;;;;;;4965096;28;20019;-76
2022/04/05 03:47:59;;;;;;;10.80;5.97;;;2.80;99.90;;;;;;4957226;29;20023;-77
2022/04/05 03:50:24;;;;;;;11.80;6.10;;;2.80;99.90;;;;;;4956215;29;20507;-76
2022/04/05 03:52:50;;;;;;;10.48;6.13;;;2.70;99.90;;;;;;4957453;29;20031;-76
2022/04/05 03:55:16;;;;;;;11.30;6.40;;;2.60;99.90;;;;;;4969277;28;20077;-77
2022/04/05 03:57:41;;;;;;;11.77;6.40;;;2.60;99.90;;;;;;4976309;28;20054;-76
2022/04/05 04:00:08;;;;;;;11.30;6.18;;;2.60;99.90;;;;;;4976367;28;20505;-76
2022/04/05 04:02:35;;;;;;;11.82;6.43;;;2.60;99.90;;;;;;4976030;28;20054;-77
2022/04/05 04:05:01;;;;;;;12.50;7.40;;;2.60;99.90;;;;;;4976128;28;20015;-76
2022/04/05 04:07:27;;;;;;;9.85;6.25;;;2.50;99.90;;;;;;4976508;28;20029;-77
2022/04/05 04:09:52;;;;;;;15.32;6.90;;;2.60;99.90;;;;;;4976234;28;20027;-76
2022/04/05 04:12:18;;;;;;;9.77;5.95;;;2.70;99.90;;;;;;4976130;28;20072;-76
2022/04/05 04:14:44;;;;;;;13.10;6.97;;;2.70;99.90;;;;;;4959108;28;20082;-79
2022/04/05 04:17:09;;;;;;;9.85;5.93;;;2.70;99.90;;;;;;4975967;28;20110;-79
2022/04/05 04:19:35;;;;;;;13.40;6.85;;;2.60;99.90;;;;;;4958923;28;20023;-79
2022/04/05 04:22:01;;;;;;;14.77;6.65;;;2.50;99.90;;;;;;4975771;28;20023;-78
2022/04/05 04:24:27;;;;;;;12.98;6.35;;;2.40;99.90;;;;;;4975980;28;20034;-76
2022/04/05 04:26:52;;;;;;;13.82;6.57;;;2.40;99.90;;;;;;4975728;28;20430;-76
2022/04/05 04:29:19;;;;;;;11.98;6.63;;;2.30;99.90;;;;;;4975253;28;20038;-76
2022/04/05 04:31:45;;;;;;;12.18;6.80;;;2.40;99.90;;;;;;4975640;28;20026;-76
2022/04/05 04:34:11;;;;;;;13.27;7.07;;;2.50;99.90;;;;;;4975516;28;20026;-76
2022/04/05 04:36:37;;;;;;;15.38;7.15;;;2.50;99.90;;;;;;4975147;28;20035;-76
2022/04/05 04:39:04;;;;;;;11.65;6.20;;;2.60;99.90;;;;;;4974912;28;20037;-76
2022/04/05 04:41:30;;;;;;;12.32;6.63;;;2.60;99.90;;;;;;4975037;28;20395;-76
2022/04/05 04:43:55;;;;;;;12.85;6.65;;;2.60;99.90;;;;;;4975549;28;20022;-77
2022/04/05 04:46:21;;;;;;;12.90;7.20;;;2.50;99.90;;;;;;4974898;28;20121;-77
2022/04/05 04:48:47;;;;;;;11.23;6.57;;;2.40;99.90;;;;;;4975275;28;20037;-75
2022/04/05 04:51:13;;;;;;;12.38;7.03;;;2.40;99.90;;;;;;4974881;28;20030;-76
2022/04/05 04:53:39;;;;;;;11.45;6.45;;;2.40;99.90;;;;;;4975245;28;20026;-77
2022/04/05 04:56:05;;;;;;;10.63;7.03;;;2.40;99.90;;;;;;4974490;28;20066;-75
2022/04/05 04:58:31;;;;;;;12.77;7.00;;;2.40;99.90;;;;;;4957356;28;20096;-76
2022/04/05 05:00:57;;;;;;;10.45;6.47;;;2.30;99.90;;;;;;4975405;28;20027;-76
2022/04/05 05:03:23;;;;;;;11.68;6.40;;;2.30;99.90;;;;;;4985780;28;20048;-77
2022/04/05 05:05:49;;;;;;;13.77;6.82;;;2.40;99.90;;;;;;4980853;28;20034;-77
2022/04/05 05:08:14;;;;;;;16.33;6.63;;;2.30;99.90;;;;;;4973678;28;20478;-76
2022/04/05 05:10:40;;;;;;;13.38;6.20;;;2.30;99.90;;;;;;4975203;28;20027;-76
2022/04/05 05:13:05;;;;;;;16.42;7.03;;;2.30;99.90;;;;;;4974577;28;20031;-76
2022/04/05 05:15:31;;;;;;;11.38;7.18;;;2.30;99.90;;;;;;4956585;28;20030;-76
2022/04/05 10:32:07;;;;;;;17.80;9.20;;;13.40;58.50;;;;;;5549476;23;20437;-76
2022/04/05 10:34:56;;;;;;;18.15;9.55;;;13.50;57.30;;;;;;4977375;28;20023;-76
2022/04/05 10:37:35;;;;;;;16.75;8.90;;;13.30;57.50;;;;;;4973934;28;20027;-77
2022/04/05 10:40:00;;;;;;;16.15;8.63;;;13.70;56.30;;;;;;4988224;28;20126;-76
2022/04/05 10:42:37;;;;;;;17.77;8.85;;;13.80;55.30;;;;;;4992846;28;20125;-76
2022/04/05 10:45:14;;;;;;;18.55;9.05;;;13.80;53.70;;;;;;4992368;28;20022;-76
2022/04/05 10:47:59;;;;;;;16.45;8.43;;;13.60;54.50;;;;;;4992506;28;20486;-75
2022/04/05 10:50:25;;;;;;;15.55;8.70;;;14.10;54.10;;;;;;4992946;28;20512;-75
2022/04/05 10:53:10;;;;;;;14.30;7.68;;;14.00;53.80;;;;;;4992286;28;20030;-75
2022/04/05 10:56:04;;;;;;;15.00;7.68;;;14.10;54.30;;;;;;4991806;28;20028;-76
2022/04/05 10:58:48;;;;;;;18.90;8.02;;;13.70;53.60;;;;;;4974624;28;20033;-76
2022/04/05 11:01:19;;;;;;;17.08;8.18;;;14.10;53.10;;;;;;4974617;28;20034;-75
2022/04/05 11:04:14;;;;;;;13.50;7.80;;;14.10;51.90;;;;;;4991862;28;20030;-76
2022/04/05 11:07:10;;;;;;;18.05;8.25;;;14.20;52.60;;;;;;4989504;28;20042;-76
2022/04/05 11:09:52;;;;;;;12.63;7.47;;;14.10;52.70;;;;;;4966174;28;20548;-76
2022/04/05 11:12:27;;;;;;;17.33;8.05;;;14.60;53.00;;;;;;4974461;28;20109;-76
2022/04/05 11:15:04;;;;;;;14.65;7.72;;;14.50;52.80;;;;;;4974179;28;20445;-76
2022/04/05 11:17:31;;;;;;;14.25;7.88;;;14.70;50.90;;;;;;4995330;28;20026;-77
2022/04/05 11:19:59;;;;;;;13.75;8.38;;;14.50;50.90;;;;;;4977764;28;20052;-76
2022/04/05 16:52:37;;;;;;;8.75;4.50;;;14.40;53.20;;;;;;5579733;23;20052;-75
2022/04/05 16:55:05;;;;;;;7.15;3.92;;;14.40;53.20;;;;;;4933926;29;20063;-79
2022/04/05 16:57:31;;;;;;;8.52;4.30;;;14.30;53.40;;;;;;4935899;29;20023;-75
2022/04/05 16:59:57;;;;;;;8.60;4.35;;;14.30;53.60;;;;;;4936103;29;20024;-76
2022/04/05 17:02:23;;;;;;;9.38;4.50;;;14.20;53.80;;;;;;4934149;29;20039;-79
2022/04/05 17:04:48;;;;;;;12.73;4.78;;;14.10;53.70;;;;;;4936127;29;20502;-79
2022/04/05 17:07:14;;;;;;;8.80;3.90;;;14.00;54.30;;;;;;4936712;29;20388;-80
2022/04/05 17:09:40;;;;;;;7.57;4.13;;;14.00;54.70;;;;;;4936375;29;20027;-80
2022/04/05 17:12:07;;;;;;;9.85;3.97;;;14.00;54.50;;;;;;4918835;29;20039;-79
2022/04/05 17:14:33;;;;;;;8.13;4.20;;;14.00;54.60;;;;;;4917665;29;20020;-76
2022/04/05 17:16:59;;;;;;;7.78;4.10;;;13.80;54.50;;;;;;4936067;29;20554;-75
2022/04/05 17:19:25;;;;;;;8.48;3.58;;;13.70;54.70;;;;;;4935215;29;20016;-74
2022/04/05 17:21:50;;;;;;;7.45;4.47;;;13.70;56.00;;;;;;4936308;29;20039;-80
2022/04/05 17:24:16;;;;;;;12.02;4.93;;;13.70;56.20;;;;;;4935536;29;20028;-76
2022/04/05 17:26:42;;;;;;;16.00;5.38;;;13.60;56.60;;;;;;4936000;29;20895;-77
2022/04/05 17:29:09;;;;;;;10.13;4.97;;;13.60;57.00;;;;;;4934730;29;20048;-76
2022/04/05 17:31:35;;;;;;;9.13;4.88;;;13.50;56.90;;;;;;4935640;29;20365;-76
2022/04/05 17:34:01;;;;;;;10.85;5.47;;;13.50;57.10;;;;;;4934713;29;20027;-73
2022/04/05 17:36:26;;;;;;;9.13;4.40;;;13.40;57.60;;;;;;4918162;29;20151;-73
2022/04/05 17:38:52;;;;;;;12.77;5.40;;;13.40;57.80;;;;;;4935868;29;20023;-74
2022/04/05 17:41:18;;;;;;;9.38;5.10;;;13.30;57.70;;;;;;4935710;29;20107;-76
2022/04/05 17:43:46;;;;;;;11.38;5.55;;;13.30;57.90;;;;;;4917347;29;20069;-83
2022/04/05 17:46:12;;;;;;;14.13;6.03;;;13.20;58.40;;;;;;4915787;29;20023;-73
2022/04/05 17:48:38;;;;;;;15.02;4.78;;;13.20;58.30;;;;;;4935548;29;20012;-76
2022/04/05 17:51:04;;;;;;;10.30;4.40;;;13.10;58.30;;;;;;4918350;29;20402;-74
2022/04/05 17:53:30;;;;;;;11.93;5.43;;;13.00;58.40;;;;;;4937206;28;20039;-75
2022/04/05 17:55:56;;;;;;;11.85;5.60;;;13.00;58.50;;;;;;4917787;29;20090;-76
2022/04/05 17:58:22;;;;;;;12.00;5.68;;;13.00;60.00;;;;;;4917299;29;20075;-79
2022/04/05 18:00:48;;;;;;;10.32;5.60;;;12.90;58.70;;;;;;4935038;29;20051;-76
2022/04/05 18:03:15;;;;;;;12.63;5.32;;;12.90;59.40;;;;;;4940322;29;20034;-76
2022/04/05 18:05:42;;;;;;;8.60;4.75;;;12.90;59.20;;;;;;4917821;29;20043;-76
2022/04/05 18:08:08;;;;;;;15.18;6.00;;;12.80;60.70;;;;;;4935361;29;20023;-77
2022/04/05 18:10:33;;;;;;;9.52;4.75;;;12.70;60.80;;;;;;4934593;29;20031;-76
2022/04/05 18:13:01;;;;;;;9.52;4.70;;;12.60;61.20;;;;;;4916784;29;20468;-75
2022/04/05 18:15:31;;;;;;;10.15;5.25;;;12.60;61.40;;;;;;4934986;29;20020;-76
2022/04/05 18:17:57;;;;;;;9.68;4.47;;;12.60;61.80;;;;;;4932668;29;20035;-75
2022/04/05 18:20:23;;;;;;;11.30;5.07;;;12.50;63.30;;;;;;4932051;29;20031;-75
2022/04/05 18:22:49;;;;;;;12.13;5.18;;;12.20;64.70;;;;;;4916674;29;20495;-76
2022/04/05 18:25:16;;;;;;;12.80;6.38;;;12.20;65.60;;;;;;4933534;29;20020;-75
2022/04/05 18:27:42;;;;;;;16.45;7.72;;;12.20;65.80;;;;;;4934000;29;20608;-75
2022/04/05 18:30:09;;;;;;;20.02;7.63;;;12.10;65.40;;;;;;4934265;29;20038;-75
2022/04/05 18:32:35;;;;;;;14.05;6.50;;;12.00;65.70;;;;;;4933277;29;20035;-75
2022/04/05 18:35:02;;;;;;;11.88;6.57;;;11.90;67.10;;;;;;4936401;29;20119;-76
2022/04/05 18:37:28;;;;;;;14.02;6.18;;;11.90;68.90;;;;;;4914696;29;20023;-77
2022/04/05 18:39:54;;;;;;;15.68;5.60;;;11.80;69.80;;;;;;4915562;29;20079;-77
2022/04/05 18:42:23;;;;;;;14.57;5.88;;;11.70;69.60;;;;;;4933162;29;20016;-81
2022/04/05 18:44:50;;;;;;;12.70;6.22;;;11.60;69.60;;;;;;4932970;29;20028;-76
2022/04/05 18:47:20;;;;;;;14.23;5.80;;;11.50;70.90;;;;;;4916053;29;20042;-77
2022/04/05 18:49:47;;;;;;;11.32;6.00;;;11.50;70.90;;;;;;4933327;29;20027;-76
2022/04/05 18:52:14;;;;;;;13.68;5.88;;;11.40;70.40;;;;;;4933018;28;20031;-77
2022/04/05 18:54:40;;;;;;;10.93;5.05;;;11.40;70.60;;;;;;4940453;29;20115;-76
2022/04/05 18:57:05;;;;;;;9.18;4.75;;;11.20;71.80;;;;;;4933160;29;20063;-75
2022/04/05 18:59:31;;;;;;;12.25;4.85;;;11.10;73.20;;;;;;4909521;29;20144;-75
2022/04/05 19:01:58;;;;;;;11.20;5.57;;;11.10;74.60;;;;;;4915816;29;20499;-75
2022/04/05 19:04:24;;;;;;;10.38;5.53;;;11.00;74.60;;;;;;4931339;29;20018;-75
2022/04/05 19:06:50;;;;;;;9.82;5.45;;;10.90;75.70;;;;;;4933694;29;20039;-75
2022/04/05 19:09:15;;;;;;;13.02;5.68;;;10.80;75.70;;;;;;4931817;29;20110;-75
2022/04/05 19:11:42;;;;;;;14.75;5.65;;;10.70;77.60;;;;;;4935098;29;20435;-76
2022/04/05 19:14:07;;;;;;;10.90;6.30;;;10.60;77.60;;;;;;4934518;29;20039;-75
2022/04/05 19:16:33;;;;;;;11.32;6.13;;;10.60;77.70;;;;;;4933512;29;20028;-76
2022/04/05 19:18:59;;;;;;;18.20;7.35;;;10.50;78.30;;;;;;4935066;29;20071;-75
2022/04/05 19:21:25;;;;;;;12.98;7.63;;;10.50;78.30;;;;;;4934081;29;20048;-75
2022/04/05 19:23:50;;;;;;;13.32;8.35;;;10.40;78.40;;;;;;4935206;29;20498;-76
2022/04/05 19:26:16;;;;;;;18.83;8.65;;;10.40;79.10;;;;;;4934757;29;20032;-75
2022/04/05 19:28:42;;;;;;;18.70;9.60;;;10.30;80.30;;;;;;4934523;29;20039;-75
2022/04/05 19:31:10;;;;;;;21.15;11.40;;;10.30;80.50;;;;;;4935358;29;20031;-75
2022/04/05 19:33:37;;;;;;;17.63;10.50;;;10.20;80.60;;;;;;4934811;29;20027;-75
2022/04/05 19:36:04;;;;;;;17.40;8.65;;;10.20;81.40;;;;;;4918804;29;20027;-75
2022/04/05 19:38:31;;;;;;;20.67;8.48;;;10.10;80.90;;;;;;4937634;29;20118;-75
2022/04/05 19:40:56;;;;;;;14.18;7.55;;;10.00;81.70;;;;;;4920539;29;20483;-75
2022/04/05 19:43:22;;;;;;;14.38;7.00;;;10.00;81.80;;;;;;4926779;29;20051;-75
2022/04/05 19:45:49;;;;;;;13.90;6.35;;;10.00;82.50;;;;;;4937941;29;20024;-75
2022/04/05 19:48:15;;;;;;;11.05;6.15;;;9.90;82.80;;;;;;4937879;29;20082;-75
2022/04/05 19:50:41;;;;;;;12.50;5.65;;;9.90;83.40;;;;;;4937650;29;20111;-75
2022/04/05 19:53:07;;;;;;;13.30;5.55;;;9.90;82.20;;;;;;4937073;28;20081;-75
2022/04/05 19:55:34;;;;;;;16.25;5.18;;;9.80;82.30;;;;;;4937513;29;20028;-75
2022/04/05 19:58:00;;;;;;;15.07;5.05;;;9.70;82.20;;;;;;4937641;29;20476;-76
2022/04/05 20:00:26;;;;;;;8.80;5.13;;;9.70;82.90;;;;;;4920355;29;20034;-76
2022/04/05 20:02:52;;;;;;;18.55;6.20;;;9.70;83.60;;;;;;4937654;29;20484;-76
2022/04/05 20:05:17;;;;;;;16.83;6.63;;;9.70;84.40;;;;;;4937941;29;20102;-76
2022/04/05 20:07:44;;;;;;;12.65;5.90;;;9.60;85.00;;;;;;4936975;29;20019;-75
2022/04/05 20:10:11;;;;;;;15.52;6.60;;;9.60;85.70;;;;;;4937810;29;20059;-75
2022/04/05 20:12:37;;;;;;;14.27;6.72;;;9.60;85.20;;;;;;4920309;29;20028;-75
2022/04/05 20:15:04;;;;;;;15.68;6.95;;;9.50;85.90;;;;;;4920205;29;20059;-75
2022/04/05 20:20:14;;;;;;;11.73;5.43;;;9.50;87.40;;;;;;4937628;29;20080;-75
2022/04/05 20:22:39;;;;;;;12.05;5.72;;;9.50;86.50;;;;;;4936834;29;20027;-75
2022/04/05 20:25:06;;;;;;;12.30;5.57;;;9.50;85.60;;;;;;4937434;29;20023;-75
2022/04/05 20:27:31;;;;;;;10.90;5.47;;;9.60;86.50;;;;;;4937041;29;20035;-76
2022/04/05 20:29:57;;;;;;;12.43;6.20;;;9.50;85.50;;;;;;4936996;29;20023;-76
2022/04/05 20:32:23;;;;;;;11.55;5.90;;;9.50;86.10;;;;;;4926938;29;20383;-75
2022/04/05 20:34:49;;;;;;;12.45;5.47;;;9.40;86.50;;;;;;4936981;29;20411;-76
2022/04/05 20:37:14;;;;;;;14.25;5.90;;;9.40;86.40;;;;;;4936916;29;20036;-76
2022/04/05 20:39:40;;;;;;;12.38;5.70;;;9.30;86.80;;;;;;4936730;29;20039;-76
2022/04/05 20:42:06;;;;;;;13.48;5.28;;;9.30;87.60;;;;;;4937044;29;20022;-76
2022/04/05 20:44:32;;;;;;;14.00;5.38;;;9.20;88.30;;;;;;4919908;29;20020;-75
2022/04/05 20:46:59;;;;;;;10.82;5.22;;;9.20;88.40;;;;;;4936950;29;20118;-75
2022/04/05 20:49:25;;;;;;;13.75;5.53;;;9.10;88.40;;;;;;4920139;29;20031;-75
2022/04/05 20:51:50;;;;;;;14.20;6.32;;;9.00;88.40;;;;;;4936436;29;20035;-76
2022/04/05 20:54:16;;;;;;;15.02;6.28;;;9.00;89.20;;;;;;4936912;29;20407;-75
2022/04/05 20:56:42;;;;;;;11.95;5.80;;;9.00;89.80;;;;;;4936944;29;20089;-76
2022/04/05 20:59:08;;;;;;;13.23;6.20;;;9.00;89.70;;;;;;4936272;29;20036;-75
2022/04/05 21:01:33;;;;;;;15.07;5.90;;;9.10;88.50;;;;;;4936559;29;20038;-75
2022/04/05 21:04:01;;;;;;;10.60;5.32;;;9.00;88.30;;;;;;4919880;29;20023;-75
2022/04/05 21:06:30;;;;;;;10.90;5.70;;;9.10;88.80;;;;;;4936483;29;20032;-76
2022/04/05 21:08:58;;;;;;;15.95;6.22;;;9.20;89.30;;;;;;4919918;29;20088;-75
2022/04/05 21:11:25;;;;;;;12.82;5.78;;;9.30;88.70;;;;;;4936842;29;20480;-75
2022/04/05 21:13:52;;;;;;;13.13;5.90;;;9.30;89.00;;;;;;4936458;29;20059;-76
2022/04/05 21:16:19;;;;;;;12.60;5.55;;;9.40;89.30;;;;;;4935767;29;20070;-75
2022/04/05 21:18:45;;;;;;;21.83;5.68;;;9.40;89.80;;;;;;4936044;29;20117;-75
2022/04/05 21:21:10;;;;;;;15.70;5.70;;;9.50;88.10;;;;;;4936230;29;20487;-75
2022/04/05 21:23:36;;;;;;;13.68;5.72;;;9.50;88.60;;;;;;4936301;29;20024;-75
2022/04/05 21:26:02;;;;;;;9.80;4.95;;;9.70;84.90;;;;;;4915796;29;20115;-76
2022/04/05 21:31:13;;;;;;;11.55;5.68;;;9.80;84.90;;;;;;4936541;29;20098;-75
2022/04/05 21:33:39;;;;;;;13.52;7.15;;;9.80;85.50;;;;;;4919046;29;20399;-75
2022/04/05 21:36:06;;;;;;;9.68;6.13;;;9.80;85.50;;;;;;4935586;29;20028;-76
2022/04/05 21:38:32;;;;;;;11.18;5.72;;;9.80;85.10;;;;;;4918923;29;20027;-75
2022/04/05 21:40:59;;;;;;;12.18;5.95;;;9.80;83.90;;;;;;4936088;29;20396;-75
2022/04/05 21:43:25;;;;;;;10.20;5.47;;;9.90;83.70;;;;;;4935350;29;20074;-75
2022/04/05 21:45:50;;;;;;;11.45;5.22;;;9.90;83.30;;;;;;4935437;29;20020;-75
2022/04/05 21:48:16;;;;;;;10.82;6.18;;;9.90;83.90;;;;;;4935856;29;20103;-75
2022/04/05 21:50:42;;;;;;;18.38;6.82;;;9.90;83.80;;;;;;4934800;29;20043;-75
2022/04/05 21:53:08;;;;;;;13.48;6.60;;;9.90;84.20;;;;;;4935818;28;20040;-75
2022/04/05 21:55:35;;;;;;;12.73;6.50;;;9.90;84.00;;;;;;4942408;29;20082;-75
2022/04/05 21:58:01;;;;;;;10.77;6.20;;;9.90;83.10;;;;;;4935659;29;20024;-75
2022/04/05 22:00:49;;;;;;;12.23;6.15;;;10.00;82.50;;;;;;4935779;29;20479;-75
2022/04/05 22:03:15;;;;;;;13.70;5.82;;;9.90;82.30;;;;;;4940919;29;20015;-75
2022/04/05 22:05:41;;;;;;;11.77;5.35;;;9.90;81.80;;;;;;4955055;29;20762;-75
2022/04/05 22:08:07;;;;;;;12.95;6.53;;;10.00;83.50;;;;;;4919994;29;20106;-76
2022/04/05 22:10:33;;;;;;;16.35;6.80;;;10.00;82.90;;;;;;4918686;29;20043;-75
2022/04/05 22:13:00;;;;;;;16.13;6.93;;;10.00;83.30;;;;;;4934575;29;20034;-75
2022/04/05 22:15:26;;;;;;;17.88;6.22;;;10.00;83.90;;;;;;4918460;29;20081;-76
2022/04/05 22:17:52;;;;;;;12.40;6.63;;;10.00;84.60;;;;;;4935129;29;20102;-75
2022/04/05 22:20:18;;;;;;;11.75;5.85;;;9.90;84.90;;;;;;4935114;29;20104;-75
2022/04/05 22:22:44;;;;;;;15.57;6.18;;;10.00;85.40;;;;;;4935711;29;20030;-76
2022/04/05 22:25:10;;;;;;;12.60;5.78;;;9.90;85.50;;;;;;4935349;29;20090;-75
2022/04/05 22:27:36;;;;;;;15.48;6.45;;;10.00;85.30;;;;;;4935305;29;20110;-76
2022/04/05 22:30:04;;;;;;;14.73;6.43;;;9.90;86.70;;;;;;4918162;29;20099;-75
2022/04/05 22:32:30;;;;;;;13.73;6.45;;;9.90;86.00;;;;;;4935212;29;20023;-76
2022/04/05 22:34:55;;;;;;;12.82;6.97;;;9.90;86.70;;;;;;4935218;29;20035;-75
2022/04/05 22:37:21;;;;;;;15.35;6.55;;;9.90;86.40;;;;;;4934867;29;20023;-75
2022/04/05 22:39:48;;;;;;;16.30;6.60;;;9.90;86.30;;;;;;4917860;29;20034;-75
2022/04/05 22:42:14;;;;;;;12.45;5.80;;;9.90;87.10;;;;;;4935273;29;20106;-75
2022/04/05 22:44:40;;;;;;;10.38;5.13;;;9.90;86.90;;;;;;4935381;29;20395;-76
2022/04/05 22:47:06;;;;;;;15.20;6.13;;;9.90;88.00;;;;;;4934822;29;20036;-75
2022/04/05 22:49:32;;;;;;;13.25;6.05;;;9.90;88.30;;;;;;4935622;29;20024;-75
2022/04/05 22:51:58;;;;;;;10.93;5.68;;;9.90;88.40;;;;;;4934878;29;20059;-75
2022/04/05 22:54:24;;;;;;;11.18;5.97;;;9.90;89.10;;;;;;4945790;29;20047;-75
2022/04/05 22:56:49;;;;;;;13.30;5.30;;;9.90;89.80;;;;;;4954132;29;20494;-75
2022/04/05 22:59:15;;;;;;;9.23;5.45;;;9.90;89.10;;;;;;4954410;29;20070;-77
2022/04/05 23:01:41;;;;;;;14.40;5.38;;;9.90;89.90;;;;;;4954485;29;20020;-75
2022/04/05 23:04:07;;;;;;;10.57;5.47;;;9.90;89.70;;;;;;4954170;29;20023;-75
2022/04/05 23:06:37;;;;;;;14.05;5.72;;;9.90;90.40;;;;;;4947589;29;20031;-76
2022/04/05 23:09:04;;;;;;;10.77;5.50;;;9.90;90.50;;;;;;4934787;29;20028;-76
2022/04/05 23:11:31;;;;;;;11.20;5.32;;;9.90;90.40;;;;;;4919694;29;20399;-75
2022/04/05 23:13:57;;;;;;;10.38;4.70;;;9.90;90.90;;;;;;4938914;29;20034;-75
2022/04/05 23:16:23;;;;;;;11.15;5.05;;;9.90;91.00;;;;;;4938344;29;20027;-76
2022/04/05 23:18:48;;;;;;;7.93;4.75;;;9.90;90.80;;;;;;4939001;29;20038;-75
2022/04/05 23:21:14;;;;;;;9.50;4.68;;;9.90;90.90;;;;;;4937736;29;20050;-75
2022/04/05 23:23:40;;;;;;;12.90;4.75;;;10.00;91.00;;;;;;4938766;29;20032;-76
2022/04/05 23:26:06;;;;;;;8.02;4.78;;;10.00;91.10;;;;;;4938593;29;20404;-75
2022/04/05 23:28:32;;;;;;;11.98;4.95;;;10.00;91.30;;;;;;4920939;29;20062;-76
2022/04/05 23:30:58;;;;;;;8.25;4.18;;;10.10;91.40;;;;;;4938029;29;20031;-75
2022/04/05 23:33:24;;;;;;;9.52;5.05;;;10.00;91.40;;;;;;4937647;29;20492;-75